Airways and Terminal Forecast

Significant Meteorological Information

Terminal Aerodrome Forecast

TAF RPLL

 

192300Z 2000/2106 12006KT 9999 FEW025 SCT100 TX31/2006Z TN24/2021Z TEMPO 2000/2006 11008KT FEW023 SCT090 TEMPO 2006/2012 10010KT SCT023 BKN090=

TAF RPVM

192300Z 2000/2106 02008KT 9999 FEW020 BKN300 TEMPO 2000/2006 03016KT FEW020 BKN100 TEMPO 2006/2012 01017G23KT 9000 -SHRA FEW018CB SCT020 BKN090=

TAF RPLC

192300Z 2000/2106 35008KT 9999 FEW020 BKN300 TX33/2006Z TN23/2022Z TEMPO 2000/2006 01010KT FEW020 SCT100 BKN300=

TAF RPLB

192300Z 2000/2024 04008KT 9999 FEW020 SCT080 TX32/2006Z TN24/2021Z TEMPO 2000/2006 05010KT SCT020 BKN080=

TAF RPLI

192300Z 2000/2024 02007KT 9999 FEW018 TEMPO 2000/2006 34012KT FEW018 SCT100=

TAF RPVP

192300Z 2000/2024 07008KT 9999 FEW019 SCT080 TEMPO 2000/2006 09014KT FEW019 BKN080=

TAF RPVD

192300Z 2000/2024 36008KT 9999 FEW015 SCT220 TEMPO 2000/2006 07013KT -SHRA FEW014CB SCT015 BKN070=

TAF RPMR

192300Z 2000/2024 02006KT 9999 FEW018 TEMPO 2000/2006 04008KT FEW015CB SCT080 BKN240=

TAF RPMD

192300Z 2000/2024 36006KT 9999 FEW016 TEMPO 2000/2006 04008KT SCT016 SCT290 TEMPO 2006/2012 02007KT 9000 -SHRA FEW015CB SCT016 BKN090=

TAF RPMZ

192300Z 2000/2024 10005KT 9999 FEW017 SCT300 TEMPO 2000/2006 29010KT FEW016CB FEW017=

 

RPLL FORECAST TAKE-OFF CONDITION

TIME

(UTC)

WIND

(dddffKT)

TEMP

(°C)

QNH

(hPa)

TIME

(UTC)

WIND

(dddffKT)

TEMP

(°C)

QNH

(hPa)

0000

11005KT

27.0

1014.0

0400

12008KT

29.0

1014.0

0100

10004KT

28.0

1015.0

0500

VRB04KT

31.0

1013.0

0200

VRB03KT

28.0

1015.0

0600

VRB05KT

31.0

1013.0

0300

12007KT

29.0

1015.0

0700

VRB06KT

30.0

1012.0

 

ISSUED AT NAIA AMSS-WD/PAGASA-DOST FOR 2300UTC 19 JANUARY 2020

PREPARED BY:   CHH                                                                                                              

CHECKED BY:   LLAB